Time;durP1;ratioP1;P1;durP2;ratioP2;P2;SDS_P1;SDS_P2;PMS_P1;PMS_P2;Temp;Humidity;BMP_temperature;BMP_pressure;BME280_temperature;BME280_humidity;BME280_pressure;Samples;Min_cycle;Max_cycle;Signal;HPM_P1;HPM_P2
2022/07/26 00:01:17;;;;;;;;;;;29.30;39.50;;;;;;8365960;28;20429;-45
2022/07/26 00:05:17;;;;;;;;;;;29.30;39.50;;;;;;8365834;28;19913;-45
2022/07/26 00:09:18;;;;;;;;;;;29.30;39.50;;;;;;8365850;28;20007;-45
2022/07/26 00:13:19;;;;;;;;;;;29.30;39.50;;;;;;8365873;28;19927;-45
2022/07/26 00:17:19;;;;;;;;;;;29.20;39.40;;;;;;8365059;28;19996;-45
2022/07/26 00:21:20;;;;;;;;;;;29.20;39.40;;;;;;8365330;28;20392;-45
2022/07/26 00:25:20;;;;;;;;;;;29.20;39.50;;;;;;8365598;28;19917;-45
2022/07/26 00:29:21;;;;;;;;;;;29.20;39.50;;;;;;8364978;28;20069;-45
2022/07/26 00:33:21;;;;;;;;;;;29.20;39.50;;;;;;8365149;28;19971;-45
2022/07/26 00:37:21;;;;;;;;;;;29.20;39.40;;;;;;8364976;28;19970;-45
2022/07/26 00:41:22;;;;;;;;;;;29.20;39.40;;;;;;8364433;28;19990;-45
2022/07/26 00:45:22;;;;;;;;;;;29.20;39.40;;;;;;8364960;28;19917;-45
2022/07/26 00:49:23;;;;;;;;;;;29.20;39.40;;;;;;8363693;28;19917;-45
2022/07/26 00:53:23;;;;;;;;;;;29.20;39.50;;;;;;8364016;28;19917;-44
2022/07/26 00:57:24;;;;;;;;;;;29.20;39.50;;;;;;8364398;28;19916;-45
2022/07/26 01:01:25;;;;;;;;;;;29.10;39.50;;;;;;8364548;28;20008;-45
2022/07/26 01:05:25;;;;;;;;;;;29.10;39.50;;;;;;8362777;28;19917;-45
2022/07/26 01:09:26;;;;;;;;;;;29.10;39.40;;;;;;8364159;28;19920;-45
2022/07/26 01:13:26;;;;;;;;;;;29.10;39.40;;;;;;8364040;28;19920;-45
2022/07/26 01:17:27;;;;;;;;;;;29.10;39.50;;;;;;8363508;28;19921;-45
2022/07/26 01:21:30;;;;;;;;;;;29.10;39.40;;;;;;8364035;28;20281;-45
2022/07/26 01:25:32;;;;;;;;;;;29.10;39.40;;;;;;8363859;28;20304;-46
2022/07/26 01:29:33;;;;;;;;;;;29.00;39.40;;;;;;8381476;28;19921;-45
2022/07/26 01:33:33;;;;;;;;;;;29.10;39.40;;;;;;8381543;28;20361;-45
2022/07/26 01:37:34;;;;;;;;;;;29.00;39.40;;;;;;8363500;28;19917;-45
2022/07/26 01:41:34;;;;;;;;;;;29.00;39.40;;;;;;8363108;28;19956;-46
2022/07/26 01:45:35;;;;;;;;;;;29.00;39.40;;;;;;8363250;28;19917;-45
2022/07/26 01:49:35;;;;;;;;;;;29.00;40.00;;;;;;8363370;28;20340;-45
2022/07/26 01:53:36;;;;;;;;;;;29.00;39.40;;;;;;8362662;28;20352;-45
2022/07/26 01:57:36;;;;;;;;;;;29.00;39.40;;;;;;8363334;28;19917;-45
2022/07/26 02:01:37;;;;;;;;;;;29.00;39.50;;;;;;8368023;28;19952;-45
2022/07/26 02:05:37;;;;;;;;;;;29.00;39.40;;;;;;8369296;28;20385;-47
2022/07/26 02:09:37;;;;;;;;;;;29.00;39.40;;;;;;8369742;28;19923;-45
2022/07/26 02:13:39;;;;;;;;;;;29.00;39.40;;;;;;8369361;28;19920;-42
2022/07/26 02:17:40;;;;;;;;;;;28.90;39.40;;;;;;8369355;28;19970;-46
2022/07/26 02:21:41;;;;;;;;;;;28.90;39.40;;;;;;8369386;28;20342;-44
2022/07/26 02:25:41;;;;;;;;;;;28.90;39.40;;;;;;8368797;28;20369;-45
2022/07/26 02:29:42;;;;;;;;;;;28.90;39.40;;;;;;8369090;28;19963;-45
2022/07/26 02:33:42;;;;;;;;;;;28.90;39.40;;;;;;8368870;28;19924;-45
2022/07/26 02:37:42;;;;;;;;;;;28.90;39.40;;;;;;8368384;28;20460;-45
2022/07/26 02:41:43;;;;;;;;;;;28.90;39.40;;;;;;8369133;28;19928;-44
2022/07/26 02:45:43;;;;;;;;;;;28.90;39.50;;;;;;8368542;28;19948;-44
2022/07/26 02:49:44;;;;;;;;;;;28.90;39.50;;;;;;8367959;28;19924;-45
2022/07/26 02:53:44;;;;;;;;;;;28.90;39.50;;;;;;8368507;28;19979;-45
2022/07/26 02:57:45;;;;;;;;;;;28.90;39.50;;;;;;8368104;28;19921;-44
2022/07/26 03:01:45;;;;;;;;;;;28.90;39.60;;;;;;8367792;28;20296;-45
2022/07/26 03:05:46;;;;;;;;;;;28.90;39.60;;;;;;8368046;28;19924;-45
2022/07/26 03:09:46;;;;;;;;;;;28.80;39.50;;;;;;8367957;28;19923;-45
2022/07/26 03:13:47;;;;;;;;;;;28.80;39.60;;;;;;8366093;28;19996;-45
2022/07/26 03:17:48;;;;;;;;;;;28.80;39.60;;;;;;8367726;28;19932;-45
2022/07/26 03:21:49;;;;;;;;;;;28.80;39.60;;;;;;8367828;28;19921;-45
2022/07/26 03:25:49;;;;;;;;;;;28.80;39.60;;;;;;8366859;28;20373;-45
2022/07/26 03:29:50;;;;;;;;;;;28.80;39.60;;;;;;8367194;28;19916;-45
2022/07/26 03:33:50;;;;;;;;;;;28.80;39.60;;;;;;8367187;28;20003;-45
2022/07/26 03:37:51;;;;;;;;;;;28.80;39.70;;;;;;8366474;28;19917;-46
2022/07/26 03:41:51;;;;;;;;;;;28.80;39.70;;;;;;8367275;28;19920;-45
2022/07/26 03:45:51;;;;;;;;;;;28.80;39.70;;;;;;8366899;28;19917;-46
2022/07/26 03:49:52;;;;;;;;;;;28.80;39.70;;;;;;8366115;28;20290;-44
2022/07/26 03:53:52;;;;;;;;;;;28.70;39.70;;;;;;8366319;28;20339;-45
2022/07/26 03:57:53;;;;;;;;;;;28.70;39.80;;;;;;8366431;28;19944;-45
2022/07/26 04:01:53;;;;;;;;;;;28.70;39.80;;;;;;8365085;28;19924;-45
2022/07/26 04:05:54;;;;;;;;;;;28.70;39.80;;;;;;8365870;28;19917;-45
2022/07/26 04:09:54;;;;;;;;;;;28.70;39.80;;;;;;8365726;28;19917;-46
2022/07/26 04:13:55;;;;;;;;;;;28.70;39.90;;;;;;8365232;28;19927;-45
2022/07/26 04:17:55;;;;;;;;;;;28.70;39.90;;;;;;8365789;28;19912;-45
2022/07/26 04:21:56;;;;;;;;;;;28.70;39.90;;;;;;8365613;28;19967;-45
2022/07/26 04:25:56;;;;;;;;;;;28.70;39.90;;;;;;8365110;28;19924;-45
2022/07/26 04:29:57;;;;;;;;;;;28.70;39.90;;;;;;8365686;28;19917;-45
2022/07/26 04:33:57;;;;;;;;;;;28.70;39.90;;;;;;8365331;28;19917;-45
2022/07/26 04:37:58;;;;;;;;;;;28.70;40.00;;;;;;8364943;28;19932;-44
2022/07/26 04:41:58;;;;;;;;;;;28.60;39.90;;;;;;8364860;28;19935;-45
2022/07/26 04:45:59;;;;;;;;;;;28.60;39.90;;;;;;8364971;28;19923;-45
2022/07/26 04:49:59;;;;;;;;;;;28.60;39.90;;;;;;8364407;28;19923;-43
2022/07/26 04:54:00;;;;;;;;;;;28.70;40.00;;;;;;8364888;28;19921;-45
2022/07/26 04:58:00;;;;;;;;;;;28.60;40.00;;;;;;8364728;28;20274;-45
2022/07/26 05:02:01;;;;;;;;;;;28.60;40.00;;;;;;8363756;28;19932;-44
2022/07/26 05:06:01;;;;;;;;;;;28.60;40.00;;;;;;8364423;28;19931;-45
2022/07/26 05:10:02;;;;;;;;;;;28.60;40.00;;;;;;8364088;28;19923;-45
2022/07/26 05:14:02;;;;;;;;;;;28.60;40.00;;;;;;8363413;28;19921;-45
2022/07/26 05:18:04;;;;;;;;;;;28.60;40.10;;;;;;8364298;28;19913;-44
2022/07/26 05:22:04;;;;;;;;;;;28.60;40.00;;;;;;8363765;28;20462;-45
2022/07/26 05:26:05;;;;;;;;;;;28.60;40.10;;;;;;8363195;28;19921;-44
2022/07/26 05:30:05;;;;;;;;;;;28.60;40.00;;;;;;8363499;28;19942;-45
2022/07/26 05:34:06;;;;;;;;;;;28.60;40.00;;;;;;8362808;28;19913;-43
2022/07/26 05:38:07;;;;;;;;;;;28.60;40.00;;;;;;8363240;28;19923;-43
2022/07/26 05:42:07;;;;;;;;;;;28.60;40.00;;;;;;8363132;28;19925;-46
2022/07/26 05:46:08;;;;;;;;;;;28.60;40.00;;;;;;8363334;28;20309;-45
2022/07/26 05:50:09;;;;;;;;;;;28.60;40.10;;;;;;8362917;28;20297;-46
2022/07/26 05:54:09;;;;;;;;;;;28.60;40.00;;;;;;8363437;28;19920;-46
2022/07/26 05:58:10;;;;;;;;;;;28.60;40.00;;;;;;8363335;28;19921;-45
2022/07/26 06:02:10;;;;;;;;;;;28.60;40.00;;;;;;8362604;28;19924;-46
2022/07/26 06:06:11;;;;;;;;;;;28.60;40.10;;;;;;8362871;28;19928;-45
2022/07/26 06:10:11;;;;;;;;;;;28.60;40.10;;;;;;8363126;28;19913;-46
2022/07/26 06:14:12;;;;;;;;;;;28.60;40.10;;;;;;8362149;28;19921;-46
2022/07/26 06:18:12;;;;;;;;;;;28.60;40.10;;;;;;8363179;28;19963;-46
2022/07/26 06:22:12;;;;;;;;;;;28.60;40.10;;;;;;8362658;28;19935;-46
2022/07/26 06:26:13;;;;;;;;;;;28.60;40.10;;;;;;8362226;28;19917;-45
2022/07/26 06:30:13;;;;;;;;;;;28.60;40.10;;;;;;8362866;28;20035;-46
2022/07/26 06:34:14;;;;;;;;;;;28.60;40.10;;;;;;8362618;28;20370;-46
2022/07/26 06:38:15;;;;;;;;;;;28.60;40.10;;;;;;8362380;28;19919;-45
2022/07/26 06:42:15;;;;;;;;;;;28.60;40.10;;;;;;8362392;28;19970;-46
2022/07/26 06:46:15;;;;;;;;;;;28.60;40.10;;;;;;8364559;28;19917;-45
2022/07/26 06:50:16;;;;;;;;;;;28.60;40.10;;;;;;8368081;28;19999;-47
2022/07/26 06:54:17;;;;;;;;;;;28.60;40.10;;;;;;8368365;28;20279;-45
2022/07/26 06:58:17;;;;;;;;;;;28.60;40.10;;;;;;8368748;28;19913;-46
2022/07/26 07:02:18;;;;;;;;;;;28.60;40.10;;;;;;8367623;28;19931;-44
2022/07/26 07:06:19;;;;;;;;;;;28.60;40.10;;;;;;8354747;28;19917;-46
2022/07/26 07:10:19;;;;;;;;;;;28.60;40.20;;;;;;8345776;28;19923;-47
2022/07/26 07:14:20;;;;;;;;;;;28.60;40.20;;;;;;8367434;28;19921;-45
2022/07/26 07:18:20;;;;;;;;;;;28.50;40.10;;;;;;8367735;28;19917;-46
2022/07/26 07:22:21;;;;;;;;;;;28.60;40.20;;;;;;8367455;28;19979;-46
2022/07/26 07:26:21;;;;;;;;;;;28.60;40.20;;;;;;8366732;28;19921;-46
2022/07/26 07:30:22;;;;;;;;;;;28.60;40.20;;;;;;8367017;28;20356;-46
2022/07/26 07:34:22;;;;;;;;;;;28.60;40.20;;;;;;8367202;28;19920;-46
2022/07/26 07:38:22;;;;;;;;;;;28.50;40.20;;;;;;8366721;28;19912;-46
2022/07/26 07:42:23;;;;;;;;;;;28.50;40.20;;;;;;8366946;28;19925;-47
2022/07/26 07:46:23;;;;;;;;;;;28.50;40.20;;;;;;8366591;28;19948;-46
2022/07/26 07:50:24;;;;;;;;;;;28.50;40.20;;;;;;8366029;28;20027;-50
2022/07/26 07:54:24;;;;;;;;;;;28.50;40.20;;;;;;8366423;28;19920;-44
2022/07/26 07:58:25;;;;;;;;;;;28.60;40.20;;;;;;8365838;28;20294;-45
2022/07/26 08:02:26;;;;;;;;;;;28.60;40.20;;;;;;8365480;28;19924;-44
2022/07/26 08:06:26;;;;;;;;;;;28.60;40.20;;;;;;8365907;28;20385;-46
2022/07/26 08:10:28;;;;;;;;;;;28.60;40.20;;;;;;8365848;28;19917;-45
2022/07/26 08:14:28;;;;;;;;;;;28.60;40.10;;;;;;8365305;28;19932;-43
2022/07/26 08:18:29;;;;;;;;;;;28.60;40.10;;;;;;8366025;28;19916;-44
2022/07/26 08:22:29;;;;;;;;;;;28.60;40.10;;;;;;8365527;28;19925;-45
2022/07/26 08:26:30;;;;;;;;;;;28.70;40.20;;;;;;8365116;28;19924;-45
2022/07/26 08:30:31;;;;;;;;;;;28.70;40.20;;;;;;8365501;28;19913;-45
2022/07/26 08:34:31;;;;;;;;;;;28.70;40.20;;;;;;8365389;28;20412;-45
2022/07/26 08:38:32;;;;;;;;;;;28.70;40.20;;;;;;8364427;28;19921;-45
2022/07/26 08:42:32;;;;;;;;;;;28.70;40.20;;;;;;8364838;28;19952;-45
2022/07/26 08:46:35;;;;;;;;;;;28.70;40.20;;;;;;8364770;28;19920;-45
2022/07/26 08:50:35;;;;;;;;;;;28.70;40.20;;;;;;8364207;28;19925;-45
2022/07/26 08:54:36;;;;;;;;;;;28.70;40.10;;;;;;8365076;28;19920;-45
2022/07/26 08:58:39;;;;;;;;;;;28.70;40.10;;;;;;8364293;28;19971;-44
2022/07/26 09:02:43;;;;;;;;;;;28.70;40.10;;;;;;8364103;28;19927;-45
2022/07/26 09:06:53;;;;;;;;;;;28.70;40.10;;;;;;8364335;28;19913;-44
2022/07/26 09:10:53;;;;;;;;;;;28.70;40.10;;;;;;8362791;28;20286;-45
2022/07/26 09:14:55;;;;;;;;;;;28.70;40.20;;;;;;8364264;28;19921;-46
2022/07/26 09:19:13;;;;;;;;;;;28.70;40.10;;;;;;8363964;28;19924;-46
2022/07/26 09:23:15;;;;;;;;;;;28.70;40.00;;;;;;8363353;28;19942;-47
2022/07/26 09:27:16;;;;;;;;;;;28.70;40.00;;;;;;8363746;28;19990;-45
2022/07/26 09:31:21;;;;;;;;;;;28.70;40.00;;;;;;8363704;28;19919;-45
2022/07/26 09:35:21;;;;;;;;;;;28.70;40.00;;;;;;8363099;28;19929;-45
2022/07/26 09:39:22;;;;;;;;;;;28.70;39.90;;;;;;8363673;28;19925;-45
2022/07/26 09:43:22;;;;;;;;;;;28.70;40.00;;;;;;8363494;28;20301;-46
2022/07/26 09:47:33;;;;;;;;;;;28.70;40.00;;;;;;8363021;28;19917;-45
2022/07/26 09:51:34;;;;;;;;;;;28.70;40.00;;;;;;8363490;28;19940;-45
2022/07/26 09:55:36;;;;;;;;;;;28.70;39.90;;;;;;8363142;28;19924;-46
2022/07/26 09:59:36;;;;;;;;;;;28.70;39.90;;;;;;8362876;28;20314;-45
2022/07/26 10:03:37;;;;;;;;;;;28.70;39.90;;;;;;8363075;28;19917;-45
2022/07/26 10:07:37;;;;;;;;;;;28.70;39.90;;;;;;8359190;28;19940;-45
2022/07/26 10:12:01;;;;;;;;;;;28.80;39.80;;;;;;8374266;28;19916;-45
2022/07/26 10:16:02;;;;;;;;;;;28.80;39.80;;;;;;8396134;28;19978;-45
2022/07/26 10:20:04;;;;;;;;;;;28.80;39.70;;;;;;8395924;28;19922;-46
2022/07/26 10:24:14;;;;;;;;;;;28.80;39.70;;;;;;8402533;28;19923;-46
2022/07/26 10:28:21;;;;;;;;;;;28.80;39.60;;;;;;8402212;28;19921;-46
2022/07/26 10:32:22;;;;;;;;;;;28.80;39.60;;;;;;8401655;28;19927;-45
2022/07/26 10:36:27;;;;;;;;;;;28.80;39.60;;;;;;8402194;28;19997;-45
2022/07/26 10:40:31;;;;;;;;;;;28.80;39.50;;;;;;8401910;28;19920;-45
2022/07/26 10:44:32;;;;;;;;;;;28.90;39.50;;;;;;8401482;28;19917;-46
2022/07/26 10:48:33;;;;;;;;;;;28.90;39.40;;;;;;8401659;28;19928;-45
2022/07/26 10:52:33;;;;;;;;;;;28.90;39.40;;;;;;8401522;28;19916;-45
2022/07/26 10:56:34;;;;;;;;;;;28.90;39.40;;;;;;8400917;28;20297;-45
2022/07/26 11:00:34;;;;;;;;;;;28.90;39.30;;;;;;8401364;28;20015;-45
2022/07/26 11:04:35;;;;;;;;;;;28.90;39.30;;;;;;8401333;28;19912;-43
2022/07/26 11:08:36;;;;;;;;;;;28.90;39.10;;;;;;8400264;28;19916;-45
2022/07/26 11:12:36;;;;;;;;;;;28.90;39.10;;;;;;8401197;28;19939;-46
2022/07/26 11:16:41;;;;;;;;;;;29.00;39.20;;;;;;8400907;28;19920;-44
2022/07/26 11:20:42;;;;;;;;;;;29.00;39.20;;;;;;8400654;28;19928;-45
2022/07/26 11:24:43;;;;;;;;;;;29.00;39.20;;;;;;8400872;28;19991;-44
2022/07/26 11:28:52;;;;;;;;;;;29.00;39.20;;;;;;8399815;28;19927;-43
2022/07/26 11:32:53;;;;;;;;;;;29.10;39.30;;;;;;8399507;28;19917;-45
2022/07/26 11:36:55;;;;;;;;;;;29.10;39.10;;;;;;8392136;28;19958;-46
2022/07/26 11:40:55;;;;;;;;;;;29.10;39.10;;;;;;8399109;28;19921;-45
2022/07/26 11:44:55;;;;;;;;;;;29.10;38.90;;;;;;8400224;28;19920;-45
2022/07/26 11:48:56;;;;;;;;;;;29.20;38.90;;;;;;8399362;28;19974;-45
2022/07/26 11:52:56;;;;;;;;;;;29.20;38.90;;;;;;8399093;28;19917;-45
2022/07/26 11:56:58;;;;;;;;;;;29.20;38.70;;;;;;8399414;28;20292;-45
2022/07/26 12:00:58;;;;;;;;;;;29.30;38.70;;;;;;8399285;28;20007;-44
2022/07/26 12:05:11;;;;;;;;;;;29.30;38.70;;;;;;8399058;28;19920;-45
2022/07/26 12:09:26;;;;;;;;;;;29.30;38.50;;;;;;8398954;28;19920;-45
2022/07/26 12:13:26;;;;;;;;;;;29.30;38.50;;;;;;8398965;28;19935;-45
2022/07/26 12:17:27;;;;;;;;;;;29.40;38.50;;;;;;8398315;28;20292;-45
2022/07/26 12:21:37;;;;;;;;;;;29.40;38.60;;;;;;8398426;28;20482;-45
2022/07/26 12:25:38;;;;;;;;;;;29.40;38.40;;;;;;8398914;28;19936;-47
2022/07/26 12:29:39;;;;;;;;;;;29.40;38.50;;;;;;8398523;28;19924;-44
2022/07/26 12:33:48;;;;;;;;;;;29.40;38.40;;;;;;8398301;28;19923;-46
2022/07/26 12:37:52;;;;;;;;;;;29.40;38.40;;;;;;8398064;28;19959;-46
2022/07/26 12:41:53;;;;;;;;;;;29.40;38.30;;;;;;8397990;28;19925;-45
2022/07/26 12:45:53;;;;;;;;;;;29.40;38.40;;;;;;8398063;28;20404;-45
2022/07/26 12:49:54;;;;;;;;;;;29.50;38.30;;;;;;8398072;28;19924;-45
2022/07/26 12:53:54;;;;;;;;;;;29.50;38.30;;;;;;8397828;28;19916;-45
2022/07/26 12:57:55;;;;;;;;;;;29.50;38.40;;;;;;8397450;28;20003;-45
2022/07/26 13:01:55;;;;;;;;;;;29.50;38.20;;;;;;8396183;28;19932;-45
2022/07/26 13:05:57;;;;;;;;;;;29.50;38.30;;;;;;8394943;28;19912;-45
2022/07/26 13:09:57;;;;;;;;;;;29.50;38.30;;;;;;8364400;28;20338;-46
2022/07/26 13:13:58;;;;;;;;;;;29.60;38.40;;;;;;8363804;28;19932;-46
2022/07/26 13:17:58;;;;;;;;;;;29.60;38.40;;;;;;8364124;28;19923;-46
2022/07/26 13:21:59;;;;;;;;;;;29.50;38.10;;;;;;8363661;28;19928;-46
2022/07/26 13:26:00;;;;;;;;;;;29.60;38.10;;;;;;8363176;28;19916;-45
2022/07/26 13:30:00;;;;;;;;;;;29.60;38.10;;;;;;8363270;28;19952;-45
2022/07/26 13:34:01;;;;;;;;;;;29.60;38.00;;;;;;8363121;28;20074;-45
2022/07/26 13:38:01;;;;;;;;;;;29.60;38.20;;;;;;8362759;28;19924;-45
2022/07/26 13:42:02;;;;;;;;;;;29.60;38.20;;;;;;8362931;28;20325;-45
2022/07/26 13:46:02;;;;;;;;;;;29.60;38.30;;;;;;8363318;28;20451;-44
2022/07/26 13:50:03;;;;;;;;;;;29.60;38.20;;;;;;8362478;28;20007;-46
2022/07/26 13:54:04;;;;;;;;;;;29.60;38.30;;;;;;8362793;28;19927;-45
2022/07/26 13:58:04;;;;;;;;;;;29.60;38.30;;;;;;8362358;28;19919;-45
2022/07/26 14:02:05;;;;;;;;;;;29.60;38.30;;;;;;8362013;28;19971;-44
2022/07/26 14:06:06;;;;;;;;;;;29.60;38.30;;;;;;8363438;28;20004;-44
2022/07/26 14:10:07;;;;;;;;;;;29.60;38.20;;;;;;8362889;28;19917;-45
2022/07/26 14:14:07;;;;;;;;;;;29.70;38.30;;;;;;8362136;28;19952;-44
2022/07/26 14:18:08;;;;;;;;;;;29.60;38.10;;;;;;8362978;28;19912;-45
2022/07/26 14:22:08;;;;;;;;;;;29.60;38.20;;;;;;8362608;28;19924;-44
2022/07/26 14:26:10;;;;;;;;;;;29.70;38.10;;;;;;8361577;28;21317;-44
2022/07/26 14:30:11;;;;;;;;;;;29.70;38.00;;;;;;8362402;28;19924;-44
2022/07/26 14:34:12;;;;;;;;;;;29.70;37.90;;;;;;8362351;28;19936;-45
2022/07/26 14:38:12;;;;;;;;;;;29.70;37.90;;;;;;8361757;28;19927;-46
2022/07/26 14:42:13;;;;;;;;;;;29.70;37.90;;;;;;8362266;28;20328;-46
2022/07/26 14:46:13;;;;;;;;;;;29.70;37.90;;;;;;8362567;28;19943;-45
2022/07/26 14:50:13;;;;;;;;;;;29.70;37.70;;;;;;8361921;28;19978;-45
2022/07/26 14:54:15;;;;;;;;;;;29.70;37.70;;;;;;8355409;28;19923;-45
2022/07/26 14:58:15;;;;;;;;;;;29.70;37.70;;;;;;8338314;28;19913;-46
2022/07/26 15:02:15;;;;;;;;;;;29.80;37.70;;;;;;8329657;28;20400;-45
2022/07/26 15:06:16;;;;;;;;;;;29.80;37.70;;;;;;8362080;28;19970;-46
2022/07/26 15:10:16;;;;;;;;;;;29.80;37.60;;;;;;8367032;28;19916;-44
2022/07/26 15:14:17;;;;;;;;;;;29.80;37.60;;;;;;8367979;28;19921;-46
2022/07/26 15:18:17;;;;;;;;;;;29.70;37.50;;;;;;8358391;28;19917;-45
2022/07/26 15:22:18;;;;;;;;;;;29.80;37.60;;;;;;8382654;28;19924;-45
2022/07/26 15:26:18;;;;;;;;;;;29.80;37.60;;;;;;8400282;28;19980;-44
2022/07/26 15:30:19;;;;;;;;;;;29.80;37.70;;;;;;8400480;28;20297;-43
2022/07/26 15:34:19;;;;;;;;;;;29.80;37.60;;;;;;8399767;28;19959;-46
2022/07/26 15:38:20;;;;;;;;;;;29.80;37.60;;;;;;8399141;28;20405;-45
2022/07/26 15:42:21;;;;;;;;;;;29.80;37.60;;;;;;8400063;28;20388;-45
2022/07/26 15:46:21;;;;;;;;;;;29.70;37.60;;;;;;8372312;28;19927;-45
2022/07/26 15:50:22;;;;;;;;;;;29.70;37.60;;;;;;8365484;28;19920;-46
2022/07/26 15:54:22;;;;;;;;;;;29.70;38.20;;;;;;8366458;28;20370;-45
2022/07/26 15:58:23;;;;;;;;;;;29.70;37.70;;;;;;8355058;28;19913;-45
2022/07/26 16:02:23;;;;;;;;;;;29.70;37.70;;;;;;8365573;28;19968;-45
2022/07/26 16:06:24;;;;;;;;;;;29.80;37.70;;;;;;8356958;28;19916;-46
2022/07/26 16:10:24;;;;;;;;;;;29.70;37.70;;;;;;8367429;28;19942;-44
2022/07/26 16:14:24;;;;;;;;;;;29.80;37.70;;;;;;8365370;28;20278;-44
2022/07/26 16:18:25;;;;;;;;;;;29.70;37.70;;;;;;8365410;28;20449;-43
2022/07/26 16:22:26;;;;;;;;;;;29.70;37.70;;;;;;8365835;28;19925;-44
2022/07/26 16:26:26;;;;;;;;;;;29.70;37.70;;;;;;8364918;28;20012;-45
2022/07/26 16:30:27;;;;;;;;;;;29.70;37.70;;;;;;8365651;28;19924;-46
2022/07/26 16:34:28;;;;;;;;;;;29.70;37.70;;;;;;8365264;28;19920;-45
2022/07/26 16:38:29;;;;;;;;;;;29.60;37.70;;;;;;8364782;28;19917;-45
2022/07/26 16:42:29;;;;;;;;;;;29.70;37.80;;;;;;8365090;28;20034;-46
2022/07/26 16:46:30;;;;;;;;;;;29.60;37.80;;;;;;8365013;28;19917;-44
2022/07/26 16:50:30;;;;;;;;;;;29.60;37.80;;;;;;8364216;28;20328;-44
2022/07/26 16:54:31;;;;;;;;;;;29.60;37.80;;;;;;8364633;28;19920;-45
2022/07/26 16:58:32;;;;;;;;;;;29.60;37.80;;;;;;8364450;28;20031;-44
2022/07/26 17:02:32;;;;;;;;;;;29.60;37.80;;;;;;8364127;28;20316;-44
2022/07/26 17:06:33;;;;;;;;;;;29.60;37.90;;;;;;8364271;28;19916;-45
2022/07/26 17:10:33;;;;;;;;;;;29.60;37.80;;;;;;8348026;28;19917;-44
2022/07/26 17:14:34;;;;;;;;;;;29.60;37.90;;;;;;8343278;28;19967;-45
2022/07/26 17:18:34;;;;;;;;;;;29.50;37.80;;;;;;8363893;28;19938;-45
2022/07/26 17:22:35;;;;;;;;;;;29.60;38.00;;;;;;8363798;28;20404;-45
2022/07/26 17:26:35;;;;;;;;;;;29.60;38.00;;;;;;8363188;28;19917;-45
2022/07/26 17:30:36;;;;;;;;;;;29.50;37.90;;;;;;8362807;28;20579;-45
2022/07/26 17:34:36;;;;;;;;;;;29.60;37.90;;;;;;8363167;28;20362;-45
2022/07/26 17:38:40;;;;;;;;;;;29.50;37.90;;;;;;8362712;28;19952;-45
2022/07/26 17:42:41;;;;;;;;;;;29.60;37.90;;;;;;8363714;28;19921;-45
2022/07/26 17:46:41;;;;;;;;;;;29.60;38.00;;;;;;8362718;28;19972;-44
2022/07/26 17:50:41;;;;;;;;;;;29.50;37.90;;;;;;8363146;28;19917;-45
2022/07/26 17:54:42;;;;;;;;;;;29.60;37.90;;;;;;8363171;28;20277;-44
2022/07/26 17:58:42;;;;;;;;;;;29.50;37.90;;;;;;8362466;28;20393;-46
2022/07/26 18:02:43;;;;;;;;;;;29.50;37.90;;;;;;8363287;28;20340;-44
2022/07/26 18:06:44;;;;;;;;;;;29.50;37.90;;;;;;8362980;28;19917;-44
2022/07/26 18:10:44;;;;;;;;;;;29.50;38.00;;;;;;8362788;28;19917;-45
2022/07/26 18:14:45;;;;;;;;;;;29.50;38.00;;;;;;8362635;28;20400;-46
2022/07/26 18:18:45;;;;;;;;;;;29.50;38.00;;;;;;8344828;28;19917;-46
2022/07/26 18:22:46;;;;;;;;;;;29.50;38.00;;;;;;8362624;28;19929;-44
2022/07/26 18:26:46;;;;;;;;;;;29.50;38.10;;;;;;8368200;28;19916;-44
2022/07/26 18:30:47;;;;;;;;;;;29.50;38.00;;;;;;8360060;28;19917;-45
2022/07/26 18:34:47;;;;;;;;;;;29.40;38.00;;;;;;8362236;28;19917;-45
2022/07/26 18:38:47;;;;;;;;;;;29.50;38.00;;;;;;8362396;28;19917;-44
2022/07/26 18:42:48;;;;;;;;;;;29.50;38.00;;;;;;8365559;28;20408;-44
2022/07/26 18:46:51;;;;;;;;;;;29.50;38.60;;;;;;8368125;28;19917;-44
2022/07/26 18:50:52;;;;;;;;;;;29.40;38.00;;;;;;8368920;28;19977;-44
2022/07/26 18:54:52;;;;;;;;;;;29.40;38.00;;;;;;8368823;28;19920;-46
2022/07/26 18:58:53;;;;;;;;;;;29.40;38.10;;;;;;8367853;28;19913;-45
2022/07/26 19:02:53;;;;;;;;;;;29.40;38.60;;;;;;8361711;28;19929;-45
2022/07/26 19:06:54;;;;;;;;;;;29.40;38.10;;;;;;8360847;28;20459;-46
2022/07/26 19:10:55;;;;;;;;;;;29.40;38.10;;;;;;8367598;28;20348;-45
2022/07/26 19:14:58;;;;;;;;;;;29.40;38.10;;;;;;8368136;28;19962;-45
2022/07/26 19:18:59;;;;;;;;;;;29.40;38.10;;;;;;8367836;28;20259;-45
2022/07/26 19:22:59;;;;;;;;;;;29.30;38.30;;;;;;8367458;28;19925;-45
2022/07/26 19:27:00;;;;;;;;;;;29.30;38.00;;;;;;8367663;28;19916;-45
2022/07/26 19:31:00;;;;;;;;;;;29.30;38.10;;;;;;8367641;28;20297;-44
2022/07/26 19:35:01;;;;;;;;;;;29.30;38.10;;;;;;8366886;28;19917;-45
2022/07/26 19:39:02;;;;;;;;;;;29.30;38.10;;;;;;8367191;28;19913;-45
2022/07/26 19:43:03;;;;;;;;;;;29.30;38.20;;;;;;8367448;28;19921;-45
2022/07/26 19:47:03;;;;;;;;;;;29.30;38.10;;;;;;8366489;28;20431;-44
2022/07/26 19:51:04;;;;;;;;;;;29.30;38.10;;;;;;8366867;28;19917;-44
2022/07/26 19:55:05;;;;;;;;;;;29.30;38.10;;;;;;8365654;28;19921;-44
2022/07/26 19:59:05;;;;;;;;;;;29.30;38.10;;;;;;8366234;28;20331;-45
2022/07/26 20:03:06;;;;;;;;;;;29.30;38.20;;;;;;8366755;28;20270;-45
2022/07/26 20:07:06;;;;;;;;;;;29.30;38.10;;;;;;8366604;28;20353;-45
2022/07/26 20:11:07;;;;;;;;;;;29.20;38.00;;;;;;8365767;28;20286;-43
2022/07/26 20:15:08;;;;;;;;;;;29.20;38.10;;;;;;8366204;28;20279;-44
2022/07/26 20:19:09;;;;;;;;;;;29.20;38.10;;;;;;8366145;28;19919;-50
2022/07/26 20:23:09;;;;;;;;;;;29.20;38.10;;;;;;8365475;28;19917;-44
2022/07/26 20:27:10;;;;;;;;;;;29.20;38.10;;;;;;8365764;28;19939;-45
2022/07/26 20:31:10;;;;;;;;;;;29.20;38.10;;;;;;8365496;28;20293;-45
2022/07/26 20:35:11;;;;;;;;;;;29.20;38.10;;;;;;8365038;28;19917;-45
2022/07/26 20:39:11;;;;;;;;;;;29.20;38.10;;;;;;8364974;28;19919;-45
2022/07/26 20:43:12;;;;;;;;;;;29.20;38.10;;;;;;8365047;28;20004;-45
2022/07/26 20:47:12;;;;;;;;;;;29.20;38.10;;;;;;8364566;28;19962;-47
2022/07/26 20:51:12;;;;;;;;;;;29.10;38.00;;;;;;8364891;28;19928;-45
2022/07/26 20:55:13;;;;;;;;;;;29.20;38.10;;;;;;8364865;28;20007;-45
2022/07/26 20:59:14;;;;;;;;;;;29.20;38.10;;;;;;8364193;28;19917;-45
2022/07/26 21:03:16;;;;;;;;;;;29.20;38.10;;;;;;8364436;28;20431;-45
2022/07/26 21:07:16;;;;;;;;;;;29.10;38.10;;;;;;8364418;28;19921;-44
2022/07/26 21:11:17;;;;;;;;;;;29.10;38.10;;;;;;8363947;28;19923;-44
2022/07/26 21:15:17;;;;;;;;;;;29.10;38.10;;;;;;8364635;28;19920;-45
2022/07/26 21:19:18;;;;;;;;;;;29.10;38.10;;;;;;8364299;28;19913;-46
2022/07/26 21:23:18;;;;;;;;;;;29.10;38.10;;;;;;8363606;28;19944;-44
2022/07/26 21:27:19;;;;;;;;;;;29.10;38.10;;;;;;8363851;28;19940;-45
2022/07/26 21:31:19;;;;;;;;;;;29.00;38.00;;;;;;8363777;28;19947;-46
2022/07/26 21:35:20;;;;;;;;;;;29.10;38.10;;;;;;8363401;28;19924;-47
2022/07/26 21:39:20;;;;;;;;;;;29.00;38.00;;;;;;8364104;28;19920;-45
2022/07/26 21:43:21;;;;;;;;;;;29.00;38.10;;;;;;8363662;28;19924;-45
2022/07/26 21:47:21;;;;;;;;;;;29.00;38.10;;;;;;8362922;28;19923;-46
2022/07/26 21:51:22;;;;;;;;;;;29.00;38.10;;;;;;8363315;28;19990;-45
2022/07/26 21:55:22;;;;;;;;;;;29.00;38.10;;;;;;8363294;28;19991;-45
2022/07/26 21:59:23;;;;;;;;;;;29.00;38.10;;;;;;8362947;28;19921;-45
2022/07/26 22:03:23;;;;;;;;;;;29.00;38.10;;;;;;8354492;28;19921;-45
2022/07/26 22:07:23;;;;;;;;;;;29.00;38.10;;;;;;8363145;28;19916;-45
2022/07/26 22:11:24;;;;;;;;;;;29.00;38.10;;;;;;8362648;28;19917;-45
2022/07/26 22:15:24;;;;;;;;;;;29.00;38.20;;;;;;8362808;28;19921;-45
2022/07/26 22:19:25;;;;;;;;;;;29.00;38.20;;;;;;8369088;28;20037;-44
2022/07/26 22:23:28;;;;;;;;;;;28.90;38.10;;;;;;8369070;28;20336;-45
2022/07/26 22:27:29;;;;;;;;;;;28.90;38.20;;;;;;8369428;28;19917;-45
2022/07/26 22:31:29;;;;;;;;;;;28.90;38.10;;;;;;8369368;28;20330;-45
2022/07/26 22:35:32;;;;;;;;;;;28.90;38.10;;;;;;8369123;28;19913;-45
2022/07/26 22:39:32;;;;;;;;;;;28.90;38.10;;;;;;8369132;28;19932;-45
2022/07/26 22:43:33;;;;;;;;;;;28.90;38.10;;;;;;8368939;28;19966;-45
2022/07/26 22:47:33;;;;;;;;;;;28.90;38.20;;;;;;8368396;28;19917;-45
2022/07/26 22:51:34;;;;;;;;;;;28.90;38.20;;;;;;8368706;28;19917;-44
2022/07/26 22:55:34;;;;;;;;;;;28.80;38.20;;;;;;8368619;28;19913;-44
2022/07/26 22:59:35;;;;;;;;;;;28.80;38.20;;;;;;8368703;28;19920;-44
2022/07/26 23:03:36;;;;;;;;;;;28.80;38.20;;;;;;8368547;28;19986;-44
2022/07/26 23:07:37;;;;;;;;;;;28.80;38.20;;;;;;8368159;28;19917;-45
2022/07/26 23:11:37;;;;;;;;;;;28.80;38.10;;;;;;8367637;28;20011;-46
2022/07/26 23:15:38;;;;;;;;;;;28.80;38.10;;;;;;8368190;28;19956;-45
2022/07/26 23:19:38;;;;;;;;;;;28.80;38.10;;;;;;8368075;28;19920;-45